RIPO2: Cimarron River Near Ripley, OK

                                SHEF ID:       RIPO2     Cimarron River near Ripley, OK
STATION TYPE:
Regulating: Stage = 20.00, Flow = 33370

PRECIP ELEVATION STAGE RIV-FLOW AIR-TEMP WIND-DIRWIND-SPEED REL-HUMID VOLTAGE BAT-LOAD
in ft ft cfs F deg mph % volt volt
Ccp-Rev Ccp-Rev Ccp-Rev Ccp-Rev Ccp-Rev Ccp-Rev Ccp-Rev Ccp-Rev Ccp-Rev Ccp-Rev
(America/Chicago)
05/07 00:00 0.00 ---- 7.08 285 124.70 ---- ---- ---- ---- 12.80
05/07 01:00 0.00 ---- 7.09 289 121.10 ---- ---- ---- ---- 12.70
05/07 02:00 0.00 ---- 7.09 289 118.40 ---- ---- ---- ---- 12.60
05/07 03:00 0.00 ---- 7.09 289 116.06 ---- ---- ---- ---- 12.56
05/07 04:00 0.00 ---- 7.10 292 114.62 ---- ---- ---- ---- 12.55
05/07 05:00 0.00 ---- 7.10 292 112.64 ---- ---- ---- ---- 12.53
05/07 06:00 0.00 ---- 7.10 292 111.02 ---- ---- ---- ---- 12.51
05/07 07:00 0.00 ---- 7.10 292 112.46 ---- ---- ---- ---- 12.47
05/07 08:00 0.00 ---- 7.09 289 129.56 ---- ---- ---- ---- 12.48
05/07 09:00 0.00 ---- 7.10 292 149.90 ---- ---- ---- ---- 13.34
05/07 10:00 0.00 ---- 7.05 276 156.02 ---- ---- ---- ---- 13.72
05/07 11:00 0.00 ---- 7.09 289 153.68 ---- ---- ---- ---- 13.72
05/07 12:00 0.00 ---- 7.05 276 152.60 ---- ---- ---- ---- 13.62
05/07 13:00 0.00 ---- 7.06 279 154.58 ---- ---- ---- ---- 13.57
05/07 14:00 0.00 ---- 7.07 282 158.72 ---- ---- ---- ---- 13.53
05/07 15:00 0.00 ---- 7.07 282 163.58 ---- ---- ---- ---- 13.51
05/07 16:00 0.00 ---- 7.07 282 172.40 ---- ---- ---- ---- 13.47
05/07 17:00 0.00 ---- 7.05 276 185.54 ---- ---- ---- ---- 13.44
05/07 18:00 0.00 ---- 7.06 279 195.80 ---- ---- ---- ---- 13.39
05/07 19:00 0.00 ---- 7.06 279 198.68 ---- ---- ---- ---- 13.34
05/07 20:00 0.00 ---- 7.07 282 181.76 ---- ---- ---- ---- 13.34
05/07 21:00 0.00 ---- 7.06 279 158.90 ---- ---- ---- ---- 13.29
05/07 22:00 0.00 ---- 7.07 282 148.82 ---- ---- ---- ---- 13.03
05/07 23:00 0.00 ---- 7.07 282 146.12 ---- ---- ---- ---- 12.88
Data processed at Fri 08May2026 04:02 GMT

NOTICE: If you are parsing this page

Please convert to using our Data API. Starting early 2026 we will be migrating to: https://water.usace.army.mil with modern pages rendered in JavaScript. When this migration completes you will no longer be able to scrape this page! CWMSDataAPI (CDA)

Timeseries IDs (TSIDs)

TSIDs used from left to right in the data table
RIPL.Precip-Inc.Total.1Hour.1Hour.Ccp-Rev
RIPL.Stage.Inst.1Hour.0.Ccp-Rev
RIPL.Flow.Inst.1Hour.0.Ccp-Rev
RIPL.Temp-Air.Inst.1Hour.0.Ccp-Rev
RIPL.Dir-Wind.Inst.1Hour.0.Ccp-Rev
RIPL.Speed-Wind.Inst.1Hour.0.Ccp-Rev
RIPL.%-Humidity.Inst.1Hour.0.Ccp-Rev
RIPL.Volt-Battery.Inst.1Hour.0.Ccp-Rev
RIPL.Volt-Battery Load.Inst.1Hour.0.Ccp-Rev

                            

All information presented herein is the property of the government of the United States of America and may be revised or deleted at any time without prior notice. Dissemination of this information without the expressed written consent of the Public Affairs Office, Tulsa District U.S. Army Corps of Engineers is strictly prohibited. These data are gathered electronically and, as presented, have NOT undergone any form of quality control. These data are NOT guaranteed to be valid or correct.